<?xml version="1.0" encoding="UTF-8"?>
<gpx xmlns="http://www.topografix.com/GPX/1/1" xmlns:gpsies="http://www.gpsies.com/GPX/1/0" creator="GPSies http://www.gpsies.com - Wandermapnet-jakobsweg,Etappe35" version="1.1" xmlns:xsi="http://www.w3.org/2001/XMLSchema-instance" xsi:schemaLocation="http://www.topografix.com/GPX/1/1 http://www.topografix.com/GPX/1/1/gpx.xsd http://www.gpsies.com/GPX/1/0 http://www.gpsies.com/gpsies.xsd">
  <metadata>
    <name>Wandermapnet-jakobsweg,Etappe35</name>
    <link href="http://www.gpsies.com/">
      <text>Wandermapnet-jakobsweg,Etappe35 on GPSies.com</text>
    </link>
    <time>2011-07-27T02:13:19Z</time>
  </metadata>
  <trk>
    <name>Wandermapnet-jakobsweg,Etappe35 on GPSies.com</name>
    <trkseg>
      <trkpt lat="42.96754500" lon="-9.03958600">
        <ele>281.00000</ele>
        <time>2011-07-27T02:06:45Z</time>
      </trkpt>
      <trkpt lat="42.96693000" lon="-9.03983300">
        <ele>279.00000</ele>
        <time>2011-07-27T02:07:11Z</time>
      </trkpt>
      <trkpt lat="42.96672400" lon="-9.03979000">
        <ele>279.00000</ele>
        <time>2011-07-27T02:07:19Z</time>
      </trkpt>
      <trkpt lat="42.96664400" lon="-9.04021400">
        <ele>279.00000</ele>
        <time>2011-07-27T02:07:32Z</time>
      </trkpt>
      <trkpt lat="42.96656000" lon="-9.04046600">
        <ele>278.00000</ele>
        <time>2011-07-27T02:07:40Z</time>
      </trkpt>
      <trkpt lat="42.96659900" lon="-9.04070200">
        <ele>278.00000</ele>
        <time>2011-07-27T02:07:47Z</time>
      </trkpt>
      <trkpt lat="42.96675500" lon="-9.04119000">
        <ele>278.00000</ele>
        <time>2011-07-27T02:08:03Z</time>
      </trkpt>
      <trkpt lat="42.96689600" lon="-9.04157600">
        <ele>274.00000</ele>
        <time>2011-07-27T02:08:15Z</time>
      </trkpt>
      <trkpt lat="42.96711000" lon="-9.04205400">
        <ele>276.00000</ele>
        <time>2011-07-27T02:08:32Z</time>
      </trkpt>
      <trkpt lat="42.96721600" lon="-9.04237000">
        <ele>270.00000</ele>
        <time>2011-07-27T02:08:42Z</time>
      </trkpt>
      <trkpt lat="42.96608000" lon="-9.04281600">
        <ele>264.00000</ele>
        <time>2011-07-27T02:09:29Z</time>
      </trkpt>
      <trkpt lat="42.96594600" lon="-9.04303600">
        <ele>264.00000</ele>
        <time>2011-07-27T02:09:38Z</time>
      </trkpt>
      <trkpt lat="42.96569100" lon="-9.04330400">
        <ele>264.00000</ele>
        <time>2011-07-27T02:09:50Z</time>
      </trkpt>
      <trkpt lat="42.96557600" lon="-9.04340000">
        <ele>264.00000</ele>
        <time>2011-07-27T02:09:56Z</time>
      </trkpt>
      <trkpt lat="42.96421800" lon="-9.04399000">
        <ele>272.00000</ele>
        <time>2011-07-27T02:10:53Z</time>
      </trkpt>
      <trkpt lat="42.96360800" lon="-9.04402300">
        <ele>281.00000</ele>
        <time>2011-07-27T02:11:17Z</time>
      </trkpt>
      <trkpt lat="42.96289800" lon="-9.04410800">
        <ele>282.00000</ele>
        <time>2011-07-27T02:11:46Z</time>
      </trkpt>
      <trkpt lat="42.96291000" lon="-9.04426900">
        <ele>282.00000</ele>
        <time>2011-07-27T02:11:51Z</time>
      </trkpt>
      <trkpt lat="42.96307400" lon="-9.04452700">
        <ele>281.00000</ele>
        <time>2011-07-27T02:12:01Z</time>
      </trkpt>
      <trkpt lat="42.96508400" lon="-9.04719800">
        <ele>299.00000</ele>
        <time>2011-07-27T02:13:53Z</time>
      </trkpt>
      <trkpt lat="42.96533600" lon="-9.04858200">
        <ele>309.00000</ele>
        <time>2011-07-27T02:14:35Z</time>
      </trkpt>
      <trkpt lat="42.96581300" lon="-9.04959100">
        <ele>332.00000</ele>
        <time>2011-07-27T02:15:10Z</time>
      </trkpt>
      <trkpt lat="42.96592300" lon="-9.05096400">
        <ele>335.00000</ele>
        <time>2011-07-27T02:15:50Z</time>
      </trkpt>
      <trkpt lat="42.96579700" lon="-9.05175800">
        <ele>335.00000</ele>
        <time>2011-07-27T02:16:14Z</time>
      </trkpt>
      <trkpt lat="42.96551500" lon="-9.05279900">
        <ele>336.00000</ele>
        <time>2011-07-27T02:16:47Z</time>
      </trkpt>
      <trkpt lat="42.96556900" lon="-9.05370000">
        <ele>338.00000</ele>
        <time>2011-07-27T02:17:13Z</time>
      </trkpt>
      <trkpt lat="42.96677800" lon="-9.05525600">
        <ele>332.00000</ele>
        <time>2011-07-27T02:18:20Z</time>
      </trkpt>
      <trkpt lat="42.96719400" lon="-9.05617800">
        <ele>347.00000</ele>
        <time>2011-07-27T02:18:51Z</time>
      </trkpt>
      <trkpt lat="42.96791800" lon="-9.05826000">
        <ele>349.00000</ele>
        <time>2011-07-27T02:19:59Z</time>
      </trkpt>
      <trkpt lat="42.96804800" lon="-9.05876400">
        <ele>333.00000</ele>
        <time>2011-07-27T02:20:14Z</time>
      </trkpt>
      <trkpt lat="42.96794100" lon="-9.05957900">
        <ele>333.00000</ele>
        <time>2011-07-27T02:20:39Z</time>
      </trkpt>
      <trkpt lat="42.96846000" lon="-9.06035200">
        <ele>321.00000</ele>
        <time>2011-07-27T02:21:09Z</time>
      </trkpt>
      <trkpt lat="42.96878800" lon="-9.06068400">
        <ele>320.00000</ele>
        <time>2011-07-27T02:21:26Z</time>
      </trkpt>
      <trkpt lat="42.96931500" lon="-9.06210100">
        <ele>299.00000</ele>
        <time>2011-07-27T02:22:12Z</time>
      </trkpt>
      <trkpt lat="42.96909300" lon="-9.06272300">
        <ele>299.00000</ele>
        <time>2011-07-27T02:22:33Z</time>
      </trkpt>
      <trkpt lat="42.96915100" lon="-9.06360300">
        <ele>288.00000</ele>
        <time>2011-07-27T02:22:59Z</time>
      </trkpt>
      <trkpt lat="42.96861600" lon="-9.06357000">
        <ele>272.00000</ele>
        <time>2011-07-27T02:23:20Z</time>
      </trkpt>
      <trkpt lat="42.96830400" lon="-9.06380700">
        <ele>271.00000</ele>
        <time>2011-07-27T02:23:34Z</time>
      </trkpt>
      <trkpt lat="42.96792600" lon="-9.06422500">
        <ele>271.00000</ele>
        <time>2011-07-27T02:23:54Z</time>
      </trkpt>
      <trkpt lat="42.96763200" lon="-9.06498700">
        <ele>279.00000</ele>
        <time>2011-07-27T02:24:19Z</time>
      </trkpt>
      <trkpt lat="42.96800200" lon="-9.06513700">
        <ele>283.00000</ele>
        <time>2011-07-27T02:24:34Z</time>
      </trkpt>
      <trkpt lat="42.96830400" lon="-9.06498700">
        <ele>283.00000</ele>
        <time>2011-07-27T02:24:47Z</time>
      </trkpt>
      <trkpt lat="42.96871200" lon="-9.06475100">
        <ele>283.00000</ele>
        <time>2011-07-27T02:25:05Z</time>
      </trkpt>
      <trkpt lat="42.96932200" lon="-9.06493300">
        <ele>277.00000</ele>
        <time>2011-07-27T02:25:30Z</time>
      </trkpt>
      <trkpt lat="42.96975300" lon="-9.06524400">
        <ele>276.00000</ele>
        <time>2011-07-27T02:25:49Z</time>
      </trkpt>
      <trkpt lat="42.97061200" lon="-9.06571600">
        <ele>282.00000</ele>
        <time>2011-07-27T02:26:27Z</time>
      </trkpt>
      <trkpt lat="42.97154200" lon="-9.06600600">
        <ele>277.00000</ele>
        <time>2011-07-27T02:27:05Z</time>
      </trkpt>
      <trkpt lat="42.97284700" lon="-9.06716500">
        <ele>284.00000</ele>
        <time>2011-07-27T02:28:07Z</time>
      </trkpt>
      <trkpt lat="42.97320900" lon="-9.06751900">
        <ele>278.00000</ele>
        <time>2011-07-27T02:28:25Z</time>
      </trkpt>
      <trkpt lat="42.97349200" lon="-9.06754000">
        <ele>278.00000</ele>
        <time>2011-07-27T02:28:36Z</time>
      </trkpt>
      <trkpt lat="42.97409400" lon="-9.06795900">
        <ele>281.00000</ele>
        <time>2011-07-27T02:29:03Z</time>
      </trkpt>
      <trkpt lat="42.97443400" lon="-9.06833400">
        <ele>281.00000</ele>
        <time>2011-07-27T02:29:21Z</time>
      </trkpt>
      <trkpt lat="42.97465100" lon="-9.06866700">
        <ele>281.00000</ele>
        <time>2011-07-27T02:29:34Z</time>
      </trkpt>
      <trkpt lat="42.97514000" lon="-9.06897800">
        <ele>287.00000</ele>
        <time>2011-07-27T02:29:55Z</time>
      </trkpt>
      <trkpt lat="42.97566600" lon="-9.06937500">
        <ele>285.00000</ele>
        <time>2011-07-27T02:30:19Z</time>
      </trkpt>
      <trkpt lat="42.97601700" lon="-9.06960000">
        <ele>301.00000</ele>
        <time>2011-07-27T02:30:35Z</time>
      </trkpt>
      <trkpt lat="42.97629900" lon="-9.06963200">
        <ele>298.00000</ele>
        <time>2011-07-27T02:30:46Z</time>
      </trkpt>
      <trkpt lat="42.97718800" lon="-9.07034000">
        <ele>294.00000</ele>
        <time>2011-07-27T02:31:27Z</time>
      </trkpt>
      <trkpt lat="42.97735200" lon="-9.07060900">
        <ele>311.00000</ele>
        <time>2011-07-27T02:31:38Z</time>
      </trkpt>
      <trkpt lat="42.97764200" lon="-9.07064100">
        <ele>311.00000</ele>
        <time>2011-07-27T02:31:49Z</time>
      </trkpt>
      <trkpt lat="42.97786300" lon="-9.07056600">
        <ele>311.00000</ele>
        <time>2011-07-27T02:31:58Z</time>
      </trkpt>
      <trkpt lat="42.97814600" lon="-9.07065200">
        <ele>299.00000</ele>
        <time>2011-07-27T02:32:10Z</time>
      </trkpt>
      <trkpt lat="42.97849300" lon="-9.07090900">
        <ele>299.00000</ele>
        <time>2011-07-27T02:32:26Z</time>
      </trkpt>
      <trkpt lat="42.97929800" lon="-9.07172400">
        <ele>307.00000</ele>
        <time>2011-07-27T02:33:06Z</time>
      </trkpt>
      <trkpt lat="42.97948800" lon="-9.07210000">
        <ele>314.00000</ele>
        <time>2011-07-27T02:33:19Z</time>
      </trkpt>
      <trkpt lat="42.97976300" lon="-9.07296900">
        <ele>316.00000</ele>
        <time>2011-07-27T02:33:47Z</time>
      </trkpt>
      <trkpt lat="42.97998800" lon="-9.07376300">
        <ele>312.00000</ele>
        <time>2011-07-27T02:34:12Z</time>
      </trkpt>
      <trkpt lat="42.98045300" lon="-9.07449200">
        <ele>326.00000</ele>
        <time>2011-07-27T02:34:40Z</time>
      </trkpt>
      <trkpt lat="42.98069000" lon="-9.07512500">
        <ele>324.00000</ele>
        <time>2011-07-27T02:35:01Z</time>
      </trkpt>
      <trkpt lat="42.98077400" lon="-9.07542600">
        <ele>321.00000</ele>
        <time>2011-07-27T02:35:11Z</time>
      </trkpt>
      <trkpt lat="42.98124700" lon="-9.07628400">
        <ele>327.00000</ele>
        <time>2011-07-27T02:35:42Z</time>
      </trkpt>
      <trkpt lat="42.98196000" lon="-9.07736800">
        <ele>337.00000</ele>
        <time>2011-07-27T02:36:25Z</time>
      </trkpt>
      <trkpt lat="42.98222700" lon="-9.07770000">
        <ele>332.00000</ele>
        <time>2011-07-27T02:36:39Z</time>
      </trkpt>
      <trkpt lat="42.98231100" lon="-9.07801200">
        <ele>339.00000</ele>
        <time>2011-07-27T02:36:49Z</time>
      </trkpt>
      <trkpt lat="42.98268900" lon="-9.07801200">
        <ele>339.00000</ele>
        <time>2011-07-27T02:37:04Z</time>
      </trkpt>
      <trkpt lat="42.98287200" lon="-9.07829000">
        <ele>339.00000</ele>
        <time>2011-07-27T02:37:15Z</time>
      </trkpt>
      <trkpt lat="42.98254000" lon="-9.07882700">
        <ele>345.00000</ele>
        <time>2011-07-27T02:37:36Z</time>
      </trkpt>
      <trkpt lat="42.98230700" lon="-9.07973900">
        <ele>352.00000</ele>
        <time>2011-07-27T02:38:04Z</time>
      </trkpt>
      <trkpt lat="42.98265800" lon="-9.08061900">
        <ele>357.00000</ele>
        <time>2011-07-27T02:38:33Z</time>
      </trkpt>
      <trkpt lat="42.98313100" lon="-9.08160600">
        <ele>368.00000</ele>
        <time>2011-07-27T02:39:08Z</time>
      </trkpt>
      <trkpt lat="42.98358500" lon="-9.08244300">
        <ele>363.00000</ele>
        <time>2011-07-27T02:39:38Z</time>
      </trkpt>
      <trkpt lat="42.98395500" lon="-9.08327900">
        <ele>365.00000</ele>
        <time>2011-07-27T02:40:07Z</time>
      </trkpt>
      <trkpt lat="42.98417300" lon="-9.08347200">
        <ele>365.00000</ele>
        <time>2011-07-27T02:40:17Z</time>
      </trkpt>
      <trkpt lat="42.98522600" lon="-9.08423400">
        <ele>372.00000</ele>
        <time>2011-07-27T02:41:05Z</time>
      </trkpt>
      <trkpt lat="42.98545500" lon="-9.08442700">
        <ele>381.00000</ele>
        <time>2011-07-27T02:41:16Z</time>
      </trkpt>
      <trkpt lat="42.98590100" lon="-9.08512500">
        <ele>381.00000</ele>
        <time>2011-07-27T02:41:43Z</time>
      </trkpt>
      <trkpt lat="42.98616800" lon="-9.08562900">
        <ele>377.00000</ele>
        <time>2011-07-27T02:42:01Z</time>
      </trkpt>
      <trkpt lat="42.98613000" lon="-9.08600400">
        <ele>377.00000</ele>
        <time>2011-07-27T02:42:12Z</time>
      </trkpt>
      <trkpt lat="42.98593900" lon="-9.08659500">
        <ele>371.00000</ele>
        <time>2011-07-27T02:42:31Z</time>
      </trkpt>
      <trkpt lat="42.98536700" lon="-9.08780700">
        <ele>367.00000</ele>
        <time>2011-07-27T02:43:13Z</time>
      </trkpt>
      <trkpt lat="42.98496600" lon="-9.08870800">
        <ele>369.00000</ele>
        <time>2011-07-27T02:43:44Z</time>
      </trkpt>
      <trkpt lat="42.98371900" lon="-9.09173400">
        <ele>371.00000</ele>
        <time>2011-07-27T02:45:26Z</time>
      </trkpt>
      <trkpt lat="42.98371900" lon="-9.09197000">
        <ele>371.00000</ele>
        <time>2011-07-27T02:45:33Z</time>
      </trkpt>
      <trkpt lat="42.98382900" lon="-9.09268900">
        <ele>370.00000</ele>
        <time>2011-07-27T02:45:54Z</time>
      </trkpt>
      <trkpt lat="42.98383700" lon="-9.09306400">
        <ele>363.00000</ele>
        <time>2011-07-27T02:46:05Z</time>
      </trkpt>
      <trkpt lat="42.98372700" lon="-9.09335400">
        <ele>361.00000</ele>
        <time>2011-07-27T02:46:15Z</time>
      </trkpt>
      <trkpt lat="42.98390600" lon="-9.09474800">
        <ele>349.00000</ele>
        <time>2011-07-27T02:46:56Z</time>
      </trkpt>
      <trkpt lat="42.98405500" lon="-9.09571400">
        <ele>345.00000</ele>
        <time>2011-07-27T02:47:25Z</time>
      </trkpt>
      <trkpt lat="42.98427600" lon="-9.09622900">
        <ele>345.00000</ele>
        <time>2011-07-27T02:47:43Z</time>
      </trkpt>
      <trkpt lat="42.98422600" lon="-9.09677600">
        <ele>342.00000</ele>
        <time>2011-07-27T02:47:59Z</time>
      </trkpt>
      <trkpt lat="42.98429100" lon="-9.09775300">
        <ele>339.00000</ele>
        <time>2011-07-27T02:48:28Z</time>
      </trkpt>
      <trkpt lat="42.98449300" lon="-9.09946900">
        <ele>346.00000</ele>
        <time>2011-07-27T02:49:19Z</time>
      </trkpt>
      <trkpt lat="42.98455800" lon="-9.10053100">
        <ele>347.00000</ele>
        <time>2011-07-27T02:49:50Z</time>
      </trkpt>
      <trkpt lat="42.98456600" lon="-9.10093900">
        <ele>347.00000</ele>
        <time>2011-07-27T02:50:02Z</time>
      </trkpt>
      <trkpt lat="42.98470700" lon="-9.10117500">
        <ele>334.00000</ele>
        <time>2011-07-27T02:50:11Z</time>
      </trkpt>
      <trkpt lat="42.98516100" lon="-9.10292400">
        <ele>333.00000</ele>
        <time>2011-07-27T02:51:05Z</time>
      </trkpt>
      <trkpt lat="42.98557700" lon="-9.10510200">
        <ele>329.00000</ele>
        <time>2011-07-27T02:52:11Z</time>
      </trkpt>
      <trkpt lat="42.98605700" lon="-9.10716200">
        <ele>323.00000</ele>
        <time>2011-07-27T02:53:14Z</time>
      </trkpt>
      <trkpt lat="42.98631700" lon="-9.10839600">
        <ele>313.00000</ele>
        <time>2011-07-27T02:53:52Z</time>
      </trkpt>
      <trkpt lat="42.98610300" lon="-9.10932900">
        <ele>315.00000</ele>
        <time>2011-07-27T02:54:20Z</time>
      </trkpt>
      <trkpt lat="42.98563400" lon="-9.11076700">
        <ele>314.00000</ele>
        <time>2011-07-27T02:55:07Z</time>
      </trkpt>
      <trkpt lat="42.98556100" lon="-9.11112100">
        <ele>314.00000</ele>
        <time>2011-07-27T02:55:17Z</time>
      </trkpt>
      <trkpt lat="42.98563400" lon="-9.11339500">
        <ele>295.00000</ele>
        <time>2011-07-27T02:56:24Z</time>
      </trkpt>
      <trkpt lat="42.98570300" lon="-9.11362100">
        <ele>295.00000</ele>
        <time>2011-07-27T02:56:31Z</time>
      </trkpt>
      <trkpt lat="42.98539700" lon="-9.11477900">
        <ele>299.00000</ele>
        <time>2011-07-27T02:57:07Z</time>
      </trkpt>
      <trkpt lat="42.98440200" lon="-9.11807300">
        <ele>305.00000</ele>
        <time>2011-07-27T02:58:52Z</time>
      </trkpt>
      <trkpt lat="42.98415800" lon="-9.11937100">
        <ele>312.00000</ele>
        <time>2011-07-27T02:59:31Z</time>
      </trkpt>
      <trkpt lat="42.98398600" lon="-9.11953200">
        <ele>312.00000</ele>
        <time>2011-07-27T02:59:39Z</time>
      </trkpt>
      <trkpt lat="42.98228800" lon="-9.12036900">
        <ele>308.00000</ele>
        <time>2011-07-27T03:00:51Z</time>
      </trkpt>
      <trkpt lat="42.98065600" lon="-9.12132400">
        <ele>303.00000</ele>
        <time>2011-07-27T03:02:02Z</time>
      </trkpt>
      <trkpt lat="42.97976300" lon="-9.12173200">
        <ele>302.00000</ele>
        <time>2011-07-27T03:02:40Z</time>
      </trkpt>
      <trkpt lat="42.97947300" lon="-9.12193500">
        <ele>302.00000</ele>
        <time>2011-07-27T03:02:53Z</time>
      </trkpt>
      <trkpt lat="42.97902700" lon="-9.12219300">
        <ele>304.00000</ele>
        <time>2011-07-27T03:03:13Z</time>
      </trkpt>
      <trkpt lat="42.97848100" lon="-9.12208600">
        <ele>305.00000</ele>
        <time>2011-07-27T03:03:35Z</time>
      </trkpt>
      <trkpt lat="42.97791700" lon="-9.12240700">
        <ele>305.00000</ele>
        <time>2011-07-27T03:03:59Z</time>
      </trkpt>
      <trkpt lat="42.97747000" lon="-9.12331900">
        <ele>298.00000</ele>
        <time>2011-07-27T03:04:31Z</time>
      </trkpt>
      <trkpt lat="42.97701600" lon="-9.12455300">
        <ele>286.00000</ele>
        <time>2011-07-27T03:05:12Z</time>
      </trkpt>
      <trkpt lat="42.97730600" lon="-9.12495000">
        <ele>290.00000</ele>
        <time>2011-07-27T03:05:28Z</time>
      </trkpt>
      <trkpt lat="42.97814600" lon="-9.12581900">
        <ele>288.00000</ele>
        <time>2011-07-27T03:06:10Z</time>
      </trkpt>
      <trkpt lat="42.97862200" lon="-9.12619500">
        <ele>288.00000</ele>
        <time>2011-07-27T03:06:32Z</time>
      </trkpt>
      <trkpt lat="42.97908800" lon="-9.12627000">
        <ele>275.00000</ele>
        <time>2011-07-27T03:06:51Z</time>
      </trkpt>
      <trkpt lat="42.97971000" lon="-9.12605500">
        <ele>280.00000</ele>
        <time>2011-07-27T03:07:17Z</time>
      </trkpt>
      <trkpt lat="42.97997300" lon="-9.12588400">
        <ele>280.00000</ele>
        <time>2011-07-27T03:07:28Z</time>
      </trkpt>
      <trkpt lat="42.98028200" lon="-9.12571200">
        <ele>280.00000</ele>
        <time>2011-07-27T03:07:42Z</time>
      </trkpt>
      <trkpt lat="42.98035000" lon="-9.12577600">
        <ele>280.00000</ele>
        <time>2011-07-27T03:07:45Z</time>
      </trkpt>
      <trkpt lat="42.98034300" lon="-9.12590500">
        <ele>280.00000</ele>
        <time>2011-07-27T03:07:49Z</time>
      </trkpt>
      <trkpt lat="42.98025500" lon="-9.12643100">
        <ele>272.00000</ele>
        <time>2011-07-27T03:08:05Z</time>
      </trkpt>
      <trkpt lat="42.98012900" lon="-9.12679600">
        <ele>272.00000</ele>
        <time>2011-07-27T03:08:17Z</time>
      </trkpt>
      <trkpt lat="42.98020900" lon="-9.12708500">
        <ele>262.00000</ele>
        <time>2011-07-27T03:08:26Z</time>
      </trkpt>
      <trkpt lat="42.98049200" lon="-9.12711700">
        <ele>263.00000</ele>
        <time>2011-07-27T03:08:37Z</time>
      </trkpt>
      <trkpt lat="42.98065600" lon="-9.12709600">
        <ele>263.00000</ele>
        <time>2011-07-27T03:08:44Z</time>
      </trkpt>
      <trkpt lat="42.98069800" lon="-9.12725700">
        <ele>263.00000</ele>
        <time>2011-07-27T03:08:49Z</time>
      </trkpt>
      <trkpt lat="42.97991200" lon="-9.12865200">
        <ele>265.00000</ele>
        <time>2011-07-27T03:09:40Z</time>
      </trkpt>
      <trkpt lat="42.97981600" lon="-9.12909200">
        <ele>275.00000</ele>
        <time>2011-07-27T03:09:54Z</time>
      </trkpt>
      <trkpt lat="42.97996500" lon="-9.12940300">
        <ele>275.00000</ele>
        <time>2011-07-27T03:10:04Z</time>
      </trkpt>
      <trkpt lat="42.98024000" lon="-9.12963900">
        <ele>281.00000</ele>
        <time>2011-07-27T03:10:17Z</time>
      </trkpt>
      <trkpt lat="42.98041500" lon="-9.12989600">
        <ele>281.00000</ele>
        <time>2011-07-27T03:10:28Z</time>
      </trkpt>
      <trkpt lat="42.98061800" lon="-9.13056100">
        <ele>285.00000</ele>
        <time>2011-07-27T03:10:49Z</time>
      </trkpt>
      <trkpt lat="42.98131600" lon="-9.13222400">
        <ele>290.00000</ele>
        <time>2011-07-27T03:11:45Z</time>
      </trkpt>
      <trkpt lat="42.98204000" lon="-9.13379100">
        <ele>280.00000</ele>
        <time>2011-07-27T03:12:39Z</time>
      </trkpt>
      <trkpt lat="42.98279200" lon="-9.13554000">
        <ele>298.00000</ele>
        <time>2011-07-27T03:13:39Z</time>
      </trkpt>
      <trkpt lat="42.98274600" lon="-9.14011000">
        <ele>308.00000</ele>
        <time>2011-07-27T03:15:53Z</time>
      </trkpt>
      <trkpt lat="42.98289500" lon="-9.14158000">
        <ele>307.00000</ele>
        <time>2011-07-27T03:16:36Z</time>
      </trkpt>
      <trkpt lat="42.98298300" lon="-9.14305000">
        <ele>314.00000</ele>
        <time>2011-07-27T03:17:19Z</time>
      </trkpt>
      <trkpt lat="42.98288000" lon="-9.14464800">
        <ele>302.00000</ele>
        <time>2011-07-27T03:18:06Z</time>
      </trkpt>
      <trkpt lat="42.98262800" lon="-9.14642900">
        <ele>312.00000</ele>
        <time>2011-07-27T03:18:59Z</time>
      </trkpt>
      <trkpt lat="42.98225000" lon="-9.14930500">
        <ele>331.00000</ele>
        <time>2011-07-27T03:20:25Z</time>
      </trkpt>
      <trkpt lat="42.98248700" lon="-9.15023800">
        <ele>334.00000</ele>
        <time>2011-07-27T03:20:54Z</time>
      </trkpt>
      <trkpt lat="42.98265100" lon="-9.15079600">
        <ele>334.00000</ele>
        <time>2011-07-27T03:21:11Z</time>
      </trkpt>
      <trkpt lat="42.98342900" lon="-9.15220100">
        <ele>325.00000</ele>
        <time>2011-07-27T03:22:03Z</time>
      </trkpt>
      <trkpt lat="42.98422200" lon="-9.15399300">
        <ele>297.00000</ele>
        <time>2011-07-27T03:23:04Z</time>
      </trkpt>
      <trkpt lat="42.98459600" lon="-9.15542000">
        <ele>290.00000</ele>
        <time>2011-07-27T03:23:49Z</time>
      </trkpt>
      <trkpt lat="42.98423800" lon="-9.15588100">
        <ele>293.00000</ele>
        <time>2011-07-27T03:24:08Z</time>
      </trkpt>
      <trkpt lat="42.98361600" lon="-9.15694400">
        <ele>291.00000</ele>
        <time>2011-07-27T03:24:48Z</time>
      </trkpt>
      <trkpt lat="42.98326100" lon="-9.15768400">
        <ele>297.00000</ele>
        <time>2011-07-27T03:25:14Z</time>
      </trkpt>
      <trkpt lat="42.98305900" lon="-9.15804900">
        <ele>307.00000</ele>
        <time>2011-07-27T03:25:28Z</time>
      </trkpt>
      <trkpt lat="42.98245600" lon="-9.15880000">
        <ele>310.00000</ele>
        <time>2011-07-27T03:26:00Z</time>
      </trkpt>
      <trkpt lat="42.98224300" lon="-9.15921800">
        <ele>310.00000</ele>
        <time>2011-07-27T03:26:15Z</time>
      </trkpt>
      <trkpt lat="42.98201400" lon="-9.15991500">
        <ele>306.00000</ele>
        <time>2011-07-27T03:26:38Z</time>
      </trkpt>
      <trkpt lat="42.98196800" lon="-9.16060200">
        <ele>314.00000</ele>
        <time>2011-07-27T03:26:58Z</time>
      </trkpt>
      <trkpt lat="42.98174700" lon="-9.16141700">
        <ele>318.00000</ele>
        <time>2011-07-27T03:27:23Z</time>
      </trkpt>
      <trkpt lat="42.98141100" lon="-9.16221100">
        <ele>323.00000</ele>
        <time>2011-07-27T03:27:50Z</time>
      </trkpt>
      <trkpt lat="42.98121600" lon="-9.16244700">
        <ele>300.00000</ele>
        <time>2011-07-27T03:28:00Z</time>
      </trkpt>
      <trkpt lat="42.98122000" lon="-9.16292000">
        <ele>306.00000</ele>
        <time>2011-07-27T03:28:14Z</time>
      </trkpt>
      <trkpt lat="42.98076600" lon="-9.16337000">
        <ele>306.00000</ele>
        <time>2011-07-27T03:28:37Z</time>
      </trkpt>
      <trkpt lat="42.98030500" lon="-9.16359500">
        <ele>292.00000</ele>
        <time>2011-07-27T03:28:56Z</time>
      </trkpt>
      <trkpt lat="42.97952700" lon="-9.16428200">
        <ele>291.00000</ele>
        <time>2011-07-27T03:29:33Z</time>
      </trkpt>
      <trkpt lat="42.97909500" lon="-9.16442200">
        <ele>291.00000</ele>
        <time>2011-07-27T03:29:51Z</time>
      </trkpt>
      <trkpt lat="42.97871800" lon="-9.16457200">
        <ele>284.00000</ele>
        <time>2011-07-27T03:30:07Z</time>
      </trkpt>
      <trkpt lat="42.97794700" lon="-9.16469000">
        <ele>291.00000</ele>
        <time>2011-07-27T03:30:38Z</time>
      </trkpt>
      <trkpt lat="42.97769900" lon="-9.16474300">
        <ele>289.00000</ele>
        <time>2011-07-27T03:30:48Z</time>
      </trkpt>
      <trkpt lat="42.97672700" lon="-9.16533400">
        <ele>290.00000</ele>
        <time>2011-07-27T03:31:31Z</time>
      </trkpt>
      <trkpt lat="42.97624600" lon="-9.16558000">
        <ele>289.00000</ele>
        <time>2011-07-27T03:31:51Z</time>
      </trkpt>
      <trkpt lat="42.97560900" lon="-9.16579500">
        <ele>289.00000</ele>
        <time>2011-07-27T03:32:17Z</time>
      </trkpt>
      <trkpt lat="42.97352200" lon="-9.16626700">
        <ele>290.00000</ele>
        <time>2011-07-27T03:33:42Z</time>
      </trkpt>
      <trkpt lat="42.97288500" lon="-9.16652400">
        <ele>286.00000</ele>
        <time>2011-07-27T03:34:09Z</time>
      </trkpt>
      <trkpt lat="42.97243100" lon="-9.16684600">
        <ele>286.00000</ele>
        <time>2011-07-27T03:34:29Z</time>
      </trkpt>
      <trkpt lat="42.97175600" lon="-9.16741500">
        <ele>284.00000</ele>
        <time>2011-07-27T03:35:01Z</time>
      </trkpt>
      <trkpt lat="42.97097800" lon="-9.16796200">
        <ele>283.00000</ele>
        <time>2011-07-27T03:35:36Z</time>
      </trkpt>
      <trkpt lat="42.97067300" lon="-9.16814400">
        <ele>283.00000</ele>
        <time>2011-07-27T03:35:49Z</time>
      </trkpt>
      <trkpt lat="42.96958900" lon="-9.16856300">
        <ele>282.00000</ele>
        <time>2011-07-27T03:36:34Z</time>
      </trkpt>
      <trkpt lat="42.96919600" lon="-9.16883100">
        <ele>278.00000</ele>
        <time>2011-07-27T03:36:52Z</time>
      </trkpt>
      <trkpt lat="42.96834200" lon="-9.16959300">
        <ele>276.00000</ele>
        <time>2011-07-27T03:37:33Z</time>
      </trkpt>
      <trkpt lat="42.96760200" lon="-9.17021500">
        <ele>277.00000</ele>
        <time>2011-07-27T03:38:08Z</time>
      </trkpt>
      <trkpt lat="42.96696900" lon="-9.17098800">
        <ele>281.00000</ele>
        <time>2011-07-27T03:38:42Z</time>
      </trkpt>
      <trkpt lat="42.96567200" lon="-9.17273600">
        <ele>275.00000</ele>
        <time>2011-07-27T03:39:54Z</time>
      </trkpt>
      <trkpt lat="42.96516000" lon="-9.17372300">
        <ele>280.00000</ele>
        <time>2011-07-27T03:40:30Z</time>
      </trkpt>
      <trkpt lat="42.96503400" lon="-9.17386300">
        <ele>280.00000</ele>
        <time>2011-07-27T03:40:36Z</time>
      </trkpt>
      <trkpt lat="42.96472200" lon="-9.17412000">
        <ele>280.00000</ele>
        <time>2011-07-27T03:40:51Z</time>
      </trkpt>
      <trkpt lat="42.96436700" lon="-9.17430300">
        <ele>276.00000</ele>
        <time>2011-07-27T03:41:06Z</time>
      </trkpt>
      <trkpt lat="42.96394300" lon="-9.17476400">
        <ele>279.00000</ele>
        <time>2011-07-27T03:41:28Z</time>
      </trkpt>
      <trkpt lat="42.96256300" lon="-9.17582600">
        <ele>261.00000</ele>
        <time>2011-07-27T03:42:31Z</time>
      </trkpt>
      <trkpt lat="42.96223400" lon="-9.17601900">
        <ele>261.00000</ele>
        <time>2011-07-27T03:42:46Z</time>
      </trkpt>
      <trkpt lat="42.96130800" lon="-9.17597700">
        <ele>260.00000</ele>
        <time>2011-07-27T03:43:23Z</time>
      </trkpt>
      <trkpt lat="42.96015900" lon="-9.17595500">
        <ele>252.00000</ele>
        <time>2011-07-27T03:44:09Z</time>
      </trkpt>
      <trkpt lat="42.95978200" lon="-9.17583700">
        <ele>252.00000</ele>
        <time>2011-07-27T03:44:24Z</time>
      </trkpt>
      <trkpt lat="42.95905300" lon="-9.17607300">
        <ele>229.00000</ele>
        <time>2011-07-27T03:44:54Z</time>
      </trkpt>
      <trkpt lat="42.95856500" lon="-9.17626600">
        <ele>226.00000</ele>
        <time>2011-07-27T03:45:15Z</time>
      </trkpt>
      <trkpt lat="42.95811800" lon="-9.17637300">
        <ele>226.00000</ele>
        <time>2011-07-27T03:45:33Z</time>
      </trkpt>
      <trkpt lat="42.95743600" lon="-9.17605200">
        <ele>200.00000</ele>
        <time>2011-07-27T03:46:02Z</time>
      </trkpt>
      <trkpt lat="42.95689400" lon="-9.17582600">
        <ele>184.00000</ele>
        <time>2011-07-27T03:46:24Z</time>
      </trkpt>
      <trkpt lat="42.95661200" lon="-9.17581600">
        <ele>184.00000</ele>
        <time>2011-07-27T03:46:36Z</time>
      </trkpt>
      <trkpt lat="42.95640600" lon="-9.17606200">
        <ele>184.00000</ele>
        <time>2011-07-27T03:46:46Z</time>
      </trkpt>
      <trkpt lat="42.95620300" lon="-9.17650200">
        <ele>187.00000</ele>
        <time>2011-07-27T03:47:02Z</time>
      </trkpt>
      <trkpt lat="42.95609300" lon="-9.17692100">
        <ele>187.00000</ele>
        <time>2011-07-27T03:47:15Z</time>
      </trkpt>
      <trkpt lat="42.95610800" lon="-9.17740300">
        <ele>188.00000</ele>
        <time>2011-07-27T03:47:29Z</time>
      </trkpt>
      <trkpt lat="42.95608500" lon="-9.17826200">
        <ele>180.00000</ele>
        <time>2011-07-27T03:47:54Z</time>
      </trkpt>
      <trkpt lat="42.95603900" lon="-9.17883000">
        <ele>176.00000</ele>
        <time>2011-07-27T03:48:11Z</time>
      </trkpt>
      <trkpt lat="42.95595900" lon="-9.17950600">
        <ele>176.00000</ele>
        <time>2011-07-27T03:48:31Z</time>
      </trkpt>
      <trkpt lat="42.95595900" lon="-9.18012900">
        <ele>172.00000</ele>
        <time>2011-07-27T03:48:49Z</time>
      </trkpt>
      <trkpt lat="42.95592100" lon="-9.18060100">
        <ele>159.00000</ele>
        <time>2011-07-27T03:49:03Z</time>
      </trkpt>
      <trkpt lat="42.95562700" lon="-9.18091200">
        <ele>159.00000</ele>
        <time>2011-07-27T03:49:18Z</time>
      </trkpt>
      <trkpt lat="42.95537900" lon="-9.18112600">
        <ele>147.00000</ele>
        <time>2011-07-27T03:49:30Z</time>
      </trkpt>
      <trkpt lat="42.95500200" lon="-9.18116900">
        <ele>147.00000</ele>
        <time>2011-07-27T03:49:45Z</time>
      </trkpt>
      <trkpt lat="42.95472700" lon="-9.18112600">
        <ele>147.00000</ele>
        <time>2011-07-27T03:49:56Z</time>
      </trkpt>
      <trkpt lat="42.95434200" lon="-9.18119100">
        <ele>127.00000</ele>
        <time>2011-07-27T03:50:11Z</time>
      </trkpt>
      <trkpt lat="42.95406700" lon="-9.18140500">
        <ele>132.00000</ele>
        <time>2011-07-27T03:50:24Z</time>
      </trkpt>
      <trkpt lat="42.95365100" lon="-9.18158800">
        <ele>117.00000</ele>
        <time>2011-07-27T03:50:42Z</time>
      </trkpt>
      <trkpt lat="42.95353300" lon="-9.18174900">
        <ele>117.00000</ele>
        <time>2011-07-27T03:50:48Z</time>
      </trkpt>
      <trkpt lat="42.95320100" lon="-9.18189900">
        <ele>117.00000</ele>
        <time>2011-07-27T03:51:02Z</time>
      </trkpt>
      <trkpt lat="42.95257600" lon="-9.18163100">
        <ele>96.000000</ele>
        <time>2011-07-27T03:51:28Z</time>
      </trkpt>
      <trkpt lat="42.95185100" lon="-9.18103000">
        <ele>82.000000</ele>
        <time>2011-07-27T03:52:02Z</time>
      </trkpt>
      <trkpt lat="42.95134400" lon="-9.18078300">
        <ele>82.000000</ele>
        <time>2011-07-27T03:52:24Z</time>
      </trkpt>
      <trkpt lat="42.95080200" lon="-9.18065400">
        <ele>76.000000</ele>
        <time>2011-07-27T03:52:46Z</time>
      </trkpt>
      <trkpt lat="42.95007700" lon="-9.18016100">
        <ele>50.000000</ele>
        <time>2011-07-27T03:53:18Z</time>
      </trkpt>
      <trkpt lat="42.95040100" lon="-9.17954900">
        <ele>40.000000</ele>
        <time>2011-07-27T03:53:41Z</time>
      </trkpt>
      <trkpt lat="42.95023300" lon="-9.17951700">
        <ele>40.000000</ele>
        <time>2011-07-27T03:53:47Z</time>
      </trkpt>
      <trkpt lat="42.94990500" lon="-9.17968900">
        <ele>50.000000</ele>
        <time>2011-07-27T03:54:01Z</time>
      </trkpt>
      <trkpt lat="42.94954300" lon="-9.17983900">
        <ele>44.000000</ele>
        <time>2011-07-27T03:54:17Z</time>
      </trkpt>
      <trkpt lat="42.94889800" lon="-9.17972100">
        <ele>44.000000</ele>
        <time>2011-07-27T03:54:43Z</time>
      </trkpt>
      <trkpt lat="42.94838000" lon="-9.17952800">
        <ele>25.000000</ele>
        <time>2011-07-27T03:55:04Z</time>
      </trkpt>
      <trkpt lat="42.94814700" lon="-9.17983900">
        <ele>35.000000</ele>
        <time>2011-07-27T03:55:17Z</time>
      </trkpt>
      <trkpt lat="42.94803600" lon="-9.18018200">
        <ele>35.000000</ele>
        <time>2011-07-27T03:55:28Z</time>
      </trkpt>
      <trkpt lat="42.94802900" lon="-9.18065400">
        <ele>47.000000</ele>
        <time>2011-07-27T03:55:42Z</time>
      </trkpt>
      <trkpt lat="42.94830300" lon="-9.18137300">
        <ele>48.000000</ele>
        <time>2011-07-27T03:56:06Z</time>
      </trkpt>
      <trkpt lat="42.94940200" lon="-9.18319700">
        <ele>44.000000</ele>
        <time>2011-07-27T03:57:15Z</time>
      </trkpt>
      <trkpt lat="42.95022600" lon="-9.18440900">
        <ele>47.000000</ele>
        <time>2011-07-27T03:58:03Z</time>
      </trkpt>
      <trkpt lat="42.95055000" lon="-9.18460200">
        <ele>42.000000</ele>
        <time>2011-07-27T03:58:18Z</time>
      </trkpt>
      <trkpt lat="42.95128600" lon="-9.18474200">
        <ele>48.000000</ele>
        <time>2011-07-27T03:58:47Z</time>
      </trkpt>
      <trkpt lat="42.95182000" lon="-9.18491400">
        <ele>48.000000</ele>
        <time>2011-07-27T03:59:09Z</time>
      </trkpt>
      <trkpt lat="42.95231600" lon="-9.18536400">
        <ele>53.000000</ele>
        <time>2011-07-27T03:59:33Z</time>
      </trkpt>
      <trkpt lat="42.95245000" lon="-9.18552500">
        <ele>41.000000</ele>
        <time>2011-07-27T03:59:40Z</time>
      </trkpt>
      <trkpt lat="42.95270200" lon="-9.18624400">
        <ele>41.000000</ele>
        <time>2011-07-27T04:00:04Z</time>
      </trkpt>
      <trkpt lat="42.95280500" lon="-9.18664100">
        <ele>31.000000</ele>
        <time>2011-07-27T04:00:16Z</time>
      </trkpt>
      <trkpt lat="42.95264400" lon="-9.18681300">
        <ele>31.000000</ele>
        <time>2011-07-27T04:00:24Z</time>
      </trkpt>
      <trkpt lat="42.95273200" lon="-9.18692000">
        <ele>31.000000</ele>
        <time>2011-07-27T04:00:29Z</time>
      </trkpt>
      <trkpt lat="42.95265200" lon="-9.18723100">
        <ele>25.000000</ele>
        <time>2011-07-27T04:00:38Z</time>
      </trkpt>
      <trkpt lat="42.95365100" lon="-9.18795000">
        <ele>20.000000</ele>
        <time>2011-07-27T04:01:24Z</time>
      </trkpt>
      <trkpt lat="42.95445300" lon="-9.18849700">
        <ele>19.000000</ele>
        <time>2011-07-27T04:02:00Z</time>
      </trkpt>
      <trkpt lat="42.95492200" lon="-9.18873300">
        <ele>18.000000</ele>
        <time>2011-07-27T04:02:20Z</time>
      </trkpt>
      <trkpt lat="42.95529200" lon="-9.18895800">
        <ele>12.000000</ele>
        <time>2011-07-27T04:02:36Z</time>
      </trkpt>
      <trkpt lat="42.95507000" lon="-9.18959100">
        <ele>9.0000000</ele>
        <time>2011-07-27T04:02:56Z</time>
      </trkpt>
      <trkpt lat="42.95550500" lon="-9.18978500">
        <ele>10.000000</ele>
        <time>2011-07-27T04:03:15Z</time>
      </trkpt>
      <trkpt lat="42.95596700" lon="-9.18993500">
        <ele>10.000000</ele>
        <time>2011-07-27T04:03:34Z</time>
      </trkpt>
      <trkpt lat="42.95610800" lon="-9.18991300">
        <ele>10.000000</ele>
        <time>2011-07-27T04:03:39Z</time>
      </trkpt>
      <trkpt lat="42.95647800" lon="-9.18993500">
        <ele>12.000000</ele>
        <time>2011-07-27T04:03:54Z</time>
      </trkpt>
      <trkpt lat="42.95646300" lon="-9.19039600">
        <ele>12.000000</ele>
        <time>2011-07-27T04:04:08Z</time>
      </trkpt>
      <trkpt lat="42.95691700" lon="-9.19086800">
        <ele>8.0000000</ele>
        <time>2011-07-27T04:04:31Z</time>
      </trkpt>
      <trkpt lat="42.95562700" lon="-9.19037500">
        <ele>10.000000</ele>
        <time>2011-07-27T04:05:24Z</time>
      </trkpt>
      <trkpt lat="42.95494500" lon="-9.19008500">
        <ele>9.0000000</ele>
        <time>2011-07-27T04:05:53Z</time>
      </trkpt>
      <trkpt lat="42.95463900" lon="-9.19142600">
        <ele>3.0000000</ele>
        <time>2011-07-27T04:06:34Z</time>
      </trkpt>
      <trkpt lat="42.95420100" lon="-9.19143700">
        <ele>3.0000000</ele>
        <time>2011-07-27T04:06:51Z</time>
      </trkpt>
      <trkpt lat="42.95325900" lon="-9.19204800">
        <ele>7.0000000</ele>
        <time>2011-07-27T04:07:33Z</time>
      </trkpt>
      <trkpt lat="42.95301400" lon="-9.19212300">
        <ele>8.0000000</ele>
        <time>2011-07-27T04:07:43Z</time>
      </trkpt>
      <trkpt lat="42.95269400" lon="-9.19152300">
        <ele>6.0000000</ele>
        <time>2011-07-27T04:08:05Z</time>
      </trkpt>
      <trkpt lat="42.95222900" lon="-9.19126500">
        <ele>6.0000000</ele>
        <time>2011-07-27T04:08:25Z</time>
      </trkpt>
      <trkpt lat="42.95182000" lon="-9.19138300">
        <ele>4.0000000</ele>
        <time>2011-07-27T04:08:42Z</time>
      </trkpt>
      <trkpt lat="42.95069900" lon="-9.19154400">
        <ele>3.0000000</ele>
        <time>2011-07-27T04:09:27Z</time>
      </trkpt>
      <trkpt lat="42.95031400" lon="-9.19165100">
        <ele>3.0000000</ele>
        <time>2011-07-27T04:09:43Z</time>
      </trkpt>
      <trkpt lat="42.94967700" lon="-9.19225200">
        <ele>12.000000</ele>
        <time>2011-07-27T04:10:14Z</time>
      </trkpt>
      <trkpt lat="42.94874200" lon="-9.19304600">
        <ele>24.000000</ele>
        <time>2011-07-27T04:10:58Z</time>
      </trkpt>
      <trkpt lat="42.94823800" lon="-9.19328200">
        <ele>24.000000</ele>
        <time>2011-07-27T04:11:19Z</time>
      </trkpt>
      <trkpt lat="42.94816200" lon="-9.19330400">
        <ele>24.000000</ele>
        <time>2011-07-27T04:11:22Z</time>
      </trkpt>
      <trkpt lat="42.94817000" lon="-9.19354000">
        <ele>24.000000</ele>
        <time>2011-07-27T04:11:29Z</time>
      </trkpt>
      <trkpt lat="42.94771600" lon="-9.19385100">
        <ele>26.000000</ele>
        <time>2011-07-27T04:11:49Z</time>
      </trkpt>
      <trkpt lat="42.94748700" lon="-9.19415100">
        <ele>26.000000</ele>
        <time>2011-07-27T04:12:02Z</time>
      </trkpt>
      <trkpt lat="42.94733800" lon="-9.19445200">
        <ele>26.000000</ele>
        <time>2011-07-27T04:12:13Z</time>
      </trkpt>
      <trkpt lat="42.94732300" lon="-9.19479500">
        <ele>40.000000</ele>
        <time>2011-07-27T04:12:23Z</time>
      </trkpt>
      <trkpt lat="42.94739900" lon="-9.19525600">
        <ele>40.000000</ele>
        <time>2011-07-27T04:12:37Z</time>
      </trkpt>
      <trkpt lat="42.94717000" lon="-9.19580300">
        <ele>49.000000</ele>
        <time>2011-07-27T04:12:55Z</time>
      </trkpt>
      <trkpt lat="42.94695300" lon="-9.19611500">
        <ele>32.000000</ele>
        <time>2011-07-27T04:13:08Z</time>
      </trkpt>
      <trkpt lat="42.94673200" lon="-9.19619000">
        <ele>32.000000</ele>
        <time>2011-07-27T04:13:17Z</time>
      </trkpt>
      <trkpt lat="42.94594600" lon="-9.19652200">
        <ele>30.000000</ele>
        <time>2011-07-27T04:13:50Z</time>
      </trkpt>
      <trkpt lat="42.94565600" lon="-9.19680100">
        <ele>30.000000</ele>
        <time>2011-07-27T04:14:04Z</time>
      </trkpt>
      <trkpt lat="42.94539600" lon="-9.19716100">
        <ele>43.000000</ele>
        <time>2011-07-27T04:14:19Z</time>
      </trkpt>
      <trkpt lat="42.94504200" lon="-9.19734800">
        <ele>43.000000</ele>
        <time>2011-07-27T04:14:34Z</time>
      </trkpt>
      <trkpt lat="42.94452300" lon="-9.19702600">
        <ele>26.000000</ele>
        <time>2011-07-27T04:14:57Z</time>
      </trkpt>
      <trkpt lat="42.94397700" lon="-9.19648500">
        <ele>26.000000</ele>
        <time>2011-07-27T04:15:24Z</time>
      </trkpt>
      <trkpt lat="42.94361900" lon="-9.19617400">
        <ele>22.000000</ele>
        <time>2011-07-27T04:15:41Z</time>
      </trkpt>
      <trkpt lat="42.94319900" lon="-9.19605600">
        <ele>22.000000</ele>
        <time>2011-07-27T04:15:58Z</time>
      </trkpt>
      <trkpt lat="42.94280600" lon="-9.19592100">
        <ele>34.000000</ele>
        <time>2011-07-27T04:16:14Z</time>
      </trkpt>
      <trkpt lat="42.94252800" lon="-9.19588400">
        <ele>34.000000</ele>
        <time>2011-07-27T04:16:25Z</time>
      </trkpt>
      <trkpt lat="42.94242900" lon="-9.19623300">
        <ele>34.000000</ele>
        <time>2011-07-27T04:16:36Z</time>
      </trkpt>
      <trkpt lat="42.94242900" lon="-9.19672600">
        <ele>49.000000</ele>
        <time>2011-07-27T04:16:51Z</time>
      </trkpt>
      <trkpt lat="42.94186400" lon="-9.19714500">
        <ele>80.000000</ele>
        <time>2011-07-27T04:17:17Z</time>
      </trkpt>
      <trkpt lat="42.94140600" lon="-9.19735900">
        <ele>80.000000</ele>
        <time>2011-07-27T04:17:36Z</time>
      </trkpt>
      <trkpt lat="42.94094500" lon="-9.19762700">
        <ele>83.000000</ele>
        <time>2011-07-27T04:17:56Z</time>
      </trkpt>
      <trkpt lat="42.94068500" lon="-9.19762700">
        <ele>83.000000</ele>
        <time>2011-07-27T04:18:06Z</time>
      </trkpt>
      <trkpt lat="42.94004100" lon="-9.19715500">
        <ele>82.000000</ele>
        <time>2011-07-27T04:18:36Z</time>
      </trkpt>
      <trkpt lat="42.93968600" lon="-9.19720900">
        <ele>82.000000</ele>
        <time>2011-07-27T04:18:50Z</time>
      </trkpt>
      <trkpt lat="42.93930100" lon="-9.19746600">
        <ele>86.000000</ele>
        <time>2011-07-27T04:19:07Z</time>
      </trkpt>
      <trkpt lat="42.93934200" lon="-9.19785300">
        <ele>86.000000</ele>
        <time>2011-07-27T04:19:19Z</time>
      </trkpt>
      <trkpt lat="42.93944500" lon="-9.19851800">
        <ele>94.000000</ele>
        <time>2011-07-27T04:19:38Z</time>
      </trkpt>
      <trkpt lat="42.93935000" lon="-9.19914000">
        <ele>105.00000</ele>
        <time>2011-07-27T04:19:57Z</time>
      </trkpt>
      <trkpt lat="42.93917100" lon="-9.19961200">
        <ele>111.00000</ele>
        <time>2011-07-27T04:20:13Z</time>
      </trkpt>
      <trkpt lat="42.93856400" lon="-9.20027700">
        <ele>99.000000</ele>
        <time>2011-07-27T04:20:44Z</time>
      </trkpt>
      <trkpt lat="42.93800000" lon="-9.20096400">
        <ele>109.00000</ele>
        <time>2011-07-27T04:21:14Z</time>
      </trkpt>
      <trkpt lat="42.93769100" lon="-9.20154300">
        <ele>114.00000</ele>
        <time>2011-07-27T04:21:35Z</time>
      </trkpt>
      <trkpt lat="42.93737800" lon="-9.20162900">
        <ele>114.00000</ele>
        <time>2011-07-27T04:21:48Z</time>
      </trkpt>
      <trkpt lat="42.93711100" lon="-9.20189700">
        <ele>114.00000</ele>
        <time>2011-07-27T04:22:01Z</time>
      </trkpt>
      <trkpt lat="42.93689000" lon="-9.20223000">
        <ele>116.00000</ele>
        <time>2011-07-27T04:22:14Z</time>
      </trkpt>
      <trkpt lat="42.93650400" lon="-9.20262700">
        <ele>116.00000</ele>
        <time>2011-07-27T04:22:34Z</time>
      </trkpt>
      <trkpt lat="42.93651600" lon="-9.20291700">
        <ele>115.00000</ele>
        <time>2011-07-27T04:22:42Z</time>
      </trkpt>
      <trkpt lat="42.93650400" lon="-9.20323800">
        <ele>115.00000</ele>
        <time>2011-07-27T04:22:52Z</time>
      </trkpt>
      <trkpt lat="42.93597000" lon="-9.20424700">
        <ele>102.00000</ele>
        <time>2011-07-27T04:23:28Z</time>
      </trkpt>
      <trkpt lat="42.93562700" lon="-9.20463300">
        <ele>105.00000</ele>
        <time>2011-07-27T04:23:46Z</time>
      </trkpt>
      <trkpt lat="42.93550100" lon="-9.20506200">
        <ele>105.00000</ele>
        <time>2011-07-27T04:23:59Z</time>
      </trkpt>
      <trkpt lat="42.93544800" lon="-9.20540600">
        <ele>105.00000</ele>
        <time>2011-07-27T04:24:10Z</time>
      </trkpt>
      <trkpt lat="42.93542100" lon="-9.20611400">
        <ele>113.00000</ele>
        <time>2011-07-27T04:24:30Z</time>
      </trkpt>
      <trkpt lat="42.93532900" lon="-9.20643600">
        <ele>98.000000</ele>
        <time>2011-07-27T04:24:41Z</time>
      </trkpt>
      <trkpt lat="42.93581400" lon="-9.20762700">
        <ele>114.00000</ele>
        <time>2011-07-27T04:25:21Z</time>
      </trkpt>
      <trkpt lat="42.93613100" lon="-9.20823800">
        <ele>105.00000</ele>
        <time>2011-07-27T04:25:42Z</time>
      </trkpt>
      <trkpt lat="42.93639800" lon="-9.20857100">
        <ele>118.00000</ele>
        <time>2011-07-27T04:25:57Z</time>
      </trkpt>
      <trkpt lat="42.93681300" lon="-9.20995500">
        <ele>99.000000</ele>
        <time>2011-07-27T04:26:41Z</time>
      </trkpt>
      <trkpt lat="42.93714900" lon="-9.21050200">
        <ele>96.000000</ele>
        <time>2011-07-27T04:27:02Z</time>
      </trkpt>
      <trkpt lat="42.93792000" lon="-9.21281900">
        <ele>90.000000</ele>
        <time>2011-07-27T04:28:16Z</time>
      </trkpt>
      <trkpt lat="42.93798400" lon="-9.21313000">
        <ele>72.000000</ele>
        <time>2011-07-27T04:28:26Z</time>
      </trkpt>
      <trkpt lat="42.93796500" lon="-9.21361300">
        <ele>72.000000</ele>
        <time>2011-07-27T04:28:40Z</time>
      </trkpt>
      <trkpt lat="42.93791200" lon="-9.21394600">
        <ele>67.000000</ele>
        <time>2011-07-27T04:28:50Z</time>
      </trkpt>
      <trkpt lat="42.93803800" lon="-9.21456800">
        <ele>56.000000</ele>
        <time>2011-07-27T04:29:09Z</time>
      </trkpt>
      <trkpt lat="42.93821000" lon="-9.21495400">
        <ele>48.000000</ele>
        <time>2011-07-27T04:29:22Z</time>
      </trkpt>
      <trkpt lat="42.93838500" lon="-9.21525500">
        <ele>48.000000</ele>
        <time>2011-07-27T04:29:33Z</time>
      </trkpt>
      <trkpt lat="42.93882400" lon="-9.21541600">
        <ele>39.000000</ele>
        <time>2011-07-27T04:29:52Z</time>
      </trkpt>
      <trkpt lat="42.93939600" lon="-9.21543700">
        <ele>31.000000</ele>
        <time>2011-07-27T04:30:14Z</time>
      </trkpt>
      <trkpt lat="42.94024700" lon="-9.21520100">
        <ele>41.000000</ele>
        <time>2011-07-27T04:30:49Z</time>
      </trkpt>
      <trkpt lat="42.94064700" lon="-9.21526600">
        <ele>43.000000</ele>
        <time>2011-07-27T04:31:05Z</time>
      </trkpt>
      <trkpt lat="42.94096000" lon="-9.21544800">
        <ele>28.000000</ele>
        <time>2011-07-27T04:31:19Z</time>
      </trkpt>
      <trkpt lat="42.94199800" lon="-9.21654200">
        <ele>19.000000</ele>
        <time>2011-07-27T04:32:11Z</time>
      </trkpt>
      <trkpt lat="42.94277600" lon="-9.21662800">
        <ele>17.000000</ele>
        <time>2011-07-27T04:32:43Z</time>
      </trkpt>
      <trkpt lat="42.94305800" lon="-9.21673500">
        <ele>14.000000</ele>
        <time>2011-07-27T04:32:54Z</time>
      </trkpt>
      <trkpt lat="42.94326000" lon="-9.21705700">
        <ele>14.000000</ele>
        <time>2011-07-27T04:33:07Z</time>
      </trkpt>
      <trkpt lat="42.94346600" lon="-9.21764700">
        <ele>8.0000000</ele>
        <time>2011-07-27T04:33:26Z</time>
      </trkpt>
      <trkpt lat="42.94368400" lon="-9.21813000">
        <ele>8.0000000</ele>
        <time>2011-07-27T04:33:43Z</time>
      </trkpt>
      <trkpt lat="42.94389700" lon="-9.21879500">
        <ele>11.000000</ele>
        <time>2011-07-27T04:34:04Z</time>
      </trkpt>
      <trkpt lat="42.94405400" lon="-9.21948200">
        <ele>11.000000</ele>
        <time>2011-07-27T04:34:25Z</time>
      </trkpt>
      <trkpt lat="42.94405400" lon="-9.21994300">
        <ele>15.000000</ele>
        <time>2011-07-27T04:34:38Z</time>
      </trkpt>
      <trkpt lat="42.94397700" lon="-9.22087700">
        <ele>27.000000</ele>
        <time>2011-07-27T04:35:06Z</time>
      </trkpt>
      <trkpt lat="42.94397000" lon="-9.22144500">
        <ele>30.000000</ele>
        <time>2011-07-27T04:35:23Z</time>
      </trkpt>
      <trkpt lat="42.94421000" lon="-9.22230400">
        <ele>27.000000</ele>
        <time>2011-07-27T04:35:50Z</time>
      </trkpt>
      <trkpt lat="42.94426000" lon="-9.22285100">
        <ele>27.000000</ele>
        <time>2011-07-27T04:36:06Z</time>
      </trkpt>
      <trkpt lat="42.94414900" lon="-9.22346200">
        <ele>26.000000</ele>
        <time>2011-07-27T04:36:24Z</time>
      </trkpt>
      <trkpt lat="42.94394300" lon="-9.22399900">
        <ele>31.000000</ele>
        <time>2011-07-27T04:36:42Z</time>
      </trkpt>
      <trkpt lat="42.94331700" lon="-9.22535100">
        <ele>30.000000</ele>
        <time>2011-07-27T04:37:29Z</time>
      </trkpt>
      <trkpt lat="42.94277600" lon="-9.22701400">
        <ele>34.000000</ele>
        <time>2011-07-27T04:38:22Z</time>
      </trkpt>
      <trkpt lat="42.94266500" lon="-9.22812900">
        <ele>27.000000</ele>
        <time>2011-07-27T04:38:55Z</time>
      </trkpt>
      <trkpt lat="42.94272600" lon="-9.22956700">
        <ele>24.000000</ele>
        <time>2011-07-27T04:39:37Z</time>
      </trkpt>
      <trkpt lat="42.94305800" lon="-9.23049000">
        <ele>18.000000</ele>
        <time>2011-07-27T04:40:07Z</time>
      </trkpt>
      <trkpt lat="42.94283700" lon="-9.23250700">
        <ele>6.0000000</ele>
        <time>2011-07-27T04:41:07Z</time>
      </trkpt>
      <trkpt lat="42.94277600" lon="-9.23288200">
        <ele>6.0000000</ele>
        <time>2011-07-27T04:41:18Z</time>
      </trkpt>
      <trkpt lat="42.94175300" lon="-9.23465300">
        <ele>11.000000</ele>
        <time>2011-07-27T04:42:25Z</time>
      </trkpt>
      <trkpt lat="42.94149400" lon="-9.23497400">
        <ele>11.000000</ele>
        <time>2011-07-27T04:42:39Z</time>
      </trkpt>
      <trkpt lat="42.94171500" lon="-9.23509200">
        <ele>11.000000</ele>
        <time>2011-07-27T04:42:48Z</time>
      </trkpt>
      <trkpt lat="42.94176100" lon="-9.23544600">
        <ele>17.000000</ele>
        <time>2011-07-27T04:42:59Z</time>
      </trkpt>
      <trkpt lat="42.94153200" lon="-9.23585400">
        <ele>17.000000</ele>
        <time>2011-07-27T04:43:14Z</time>
      </trkpt>
      <trkpt lat="42.94144100" lon="-9.23597200">
        <ele>17.000000</ele>
        <time>2011-07-27T04:43:19Z</time>
      </trkpt>
      <trkpt lat="42.94131500" lon="-9.23621900">
        <ele>17.000000</ele>
        <time>2011-07-27T04:43:28Z</time>
      </trkpt>
      <trkpt lat="42.94099000" lon="-9.23665900">
        <ele>23.000000</ele>
        <time>2011-07-27T04:43:46Z</time>
      </trkpt>
      <trkpt lat="42.94091400" lon="-9.23692700">
        <ele>23.000000</ele>
        <time>2011-07-27T04:43:54Z</time>
      </trkpt>
      <trkpt lat="42.94064700" lon="-9.23743100">
        <ele>35.000000</ele>
        <time>2011-07-27T04:44:13Z</time>
      </trkpt>
      <trkpt lat="42.94024700" lon="-9.23768900">
        <ele>28.000000</ele>
        <time>2011-07-27T04:44:30Z</time>
      </trkpt>
      <trkpt lat="42.93989200" lon="-9.23766700">
        <ele>28.000000</ele>
        <time>2011-07-27T04:44:44Z</time>
      </trkpt>
      <trkpt lat="42.93958700" lon="-9.23772100">
        <ele>28.000000</ele>
        <time>2011-07-27T04:44:57Z</time>
      </trkpt>
      <trkpt lat="42.93919400" lon="-9.23786000">
        <ele>27.000000</ele>
        <time>2011-07-27T04:45:13Z</time>
      </trkpt>
      <trkpt lat="42.93897200" lon="-9.23805400">
        <ele>44.000000</ele>
        <time>2011-07-27T04:45:24Z</time>
      </trkpt>
      <trkpt lat="42.93874400" lon="-9.23871900">
        <ele>43.000000</ele>
        <time>2011-07-27T04:45:45Z</time>
      </trkpt>
      <trkpt lat="42.93840800" lon="-9.23884700">
        <ele>57.000000</ele>
        <time>2011-07-27T04:45:59Z</time>
      </trkpt>
      <trkpt lat="42.93806800" lon="-9.23869700">
        <ele>43.000000</ele>
        <time>2011-07-27T04:46:13Z</time>
      </trkpt>
      <trkpt lat="42.93761400" lon="-9.23862200">
        <ele>39.000000</ele>
        <time>2011-07-27T04:46:32Z</time>
      </trkpt>
      <trkpt lat="42.93717600" lon="-9.23865400">
        <ele>39.000000</ele>
        <time>2011-07-27T04:46:49Z</time>
      </trkpt>
      <trkpt lat="42.93684400" lon="-9.23890100">
        <ele>59.000000</ele>
        <time>2011-07-27T04:47:04Z</time>
      </trkpt>
      <trkpt lat="42.93645100" lon="-9.23895500">
        <ele>59.000000</ele>
        <time>2011-07-27T04:47:20Z</time>
      </trkpt>
      <trkpt lat="42.93575300" lon="-9.23851500">
        <ele>45.000000</ele>
        <time>2011-07-27T04:47:51Z</time>
      </trkpt>
      <trkpt lat="42.93527200" lon="-9.23834300">
        <ele>52.000000</ele>
        <time>2011-07-27T04:48:11Z</time>
      </trkpt>
      <trkpt lat="42.93468500" lon="-9.23801100">
        <ele>52.000000</ele>
        <time>2011-07-27T04:48:36Z</time>
      </trkpt>
      <trkpt lat="42.93410100" lon="-9.23772100">
        <ele>57.000000</ele>
        <time>2011-07-27T04:49:01Z</time>
      </trkpt>
      <trkpt lat="42.93323900" lon="-9.23701300">
        <ele>55.000000</ele>
        <time>2011-07-27T04:49:41Z</time>
      </trkpt>
      <trkpt lat="42.93279300" lon="-9.23693800">
        <ele>57.000000</ele>
        <time>2011-07-27T04:49:59Z</time>
      </trkpt>
      <trkpt lat="42.93228900" lon="-9.23701300">
        <ele>57.000000</ele>
        <time>2011-07-27T04:50:20Z</time>
      </trkpt>
      <trkpt lat="42.93131300" lon="-9.23751700">
        <ele>78.000000</ele>
        <time>2011-07-27T04:51:01Z</time>
      </trkpt>
      <trkpt lat="42.93092700" lon="-9.23765700">
        <ele>77.000000</ele>
        <time>2011-07-27T04:51:17Z</time>
      </trkpt>
      <trkpt lat="42.93076300" lon="-9.23783900">
        <ele>77.000000</ele>
        <time>2011-07-27T04:51:26Z</time>
      </trkpt>
      <trkpt lat="42.93049600" lon="-9.23802100">
        <ele>88.000000</ele>
        <time>2011-07-27T04:51:38Z</time>
      </trkpt>
      <trkpt lat="42.93009600" lon="-9.23825700">
        <ele>78.000000</ele>
        <time>2011-07-27T04:51:55Z</time>
      </trkpt>
      <trkpt lat="42.92897400" lon="-9.23863300">
        <ele>76.000000</ele>
        <time>2011-07-27T04:52:42Z</time>
      </trkpt>
      <trkpt lat="42.92860400" lon="-9.23874000">
        <ele>66.000000</ele>
        <time>2011-07-27T04:52:57Z</time>
      </trkpt>
      <trkpt lat="42.92855800" lon="-9.23910500">
        <ele>66.000000</ele>
        <time>2011-07-27T04:53:08Z</time>
      </trkpt>
      <trkpt lat="42.92861900" lon="-9.23963100">
        <ele>64.000000</ele>
        <time>2011-07-27T04:53:23Z</time>
      </trkpt>
      <trkpt lat="42.92925600" lon="-9.24061800">
        <ele>81.000000</ele>
        <time>2011-07-27T04:54:02Z</time>
      </trkpt>
      <trkpt lat="42.92947800" lon="-9.24115400">
        <ele>81.000000</ele>
        <time>2011-07-27T04:54:20Z</time>
      </trkpt>
      <trkpt lat="42.92943600" lon="-9.24180900">
        <ele>74.000000</ele>
        <time>2011-07-27T04:54:39Z</time>
      </trkpt>
      <trkpt lat="42.92921800" lon="-9.24237700">
        <ele>70.000000</ele>
        <time>2011-07-27T04:54:58Z</time>
      </trkpt>
      <trkpt lat="42.92752800" lon="-9.24496300">
        <ele>47.000000</ele>
        <time>2011-07-27T04:56:39Z</time>
      </trkpt>
      <trkpt lat="42.92712000" lon="-9.24554200">
        <ele>55.000000</ele>
        <time>2011-07-27T04:57:03Z</time>
      </trkpt>
      <trkpt lat="42.92707800" lon="-9.24574600">
        <ele>37.000000</ele>
        <time>2011-07-27T04:57:09Z</time>
      </trkpt>
      <trkpt lat="42.92690700" lon="-9.24627200">
        <ele>41.000000</ele>
        <time>2011-07-27T04:57:26Z</time>
      </trkpt>
      <trkpt lat="42.92665500" lon="-9.24658300">
        <ele>41.000000</ele>
        <time>2011-07-27T04:57:40Z</time>
      </trkpt>
      <trkpt lat="42.92655900" lon="-9.24750600">
        <ele>41.000000</ele>
        <time>2011-07-27T04:58:07Z</time>
      </trkpt>
      <trkpt lat="42.92618600" lon="-9.24998400">
        <ele>17.000000</ele>
        <time>2011-07-27T04:59:21Z</time>
      </trkpt>
      <trkpt lat="42.92631900" lon="-9.25039200">
        <ele>34.000000</ele>
        <time>2011-07-27T04:59:34Z</time>
      </trkpt>
      <trkpt lat="42.92634200" lon="-9.25103500">
        <ele>34.000000</ele>
        <time>2011-07-27T04:59:53Z</time>
      </trkpt>
      <trkpt lat="42.92627000" lon="-9.25213000">
        <ele>22.000000</ele>
        <time>2011-07-27T05:00:25Z</time>
      </trkpt>
      <trkpt lat="42.92624700" lon="-9.25272000">
        <ele>16.000000</ele>
        <time>2011-07-27T05:00:43Z</time>
      </trkpt>
      <trkpt lat="42.92616300" lon="-9.25333100">
        <ele>17.000000</ele>
        <time>2011-07-27T05:01:01Z</time>
      </trkpt>
      <trkpt lat="42.92608300" lon="-9.25358900">
        <ele>17.000000</ele>
        <time>2011-07-27T05:01:09Z</time>
      </trkpt>
      <trkpt lat="42.92590300" lon="-9.25384600">
        <ele>17.000000</ele>
        <time>2011-07-27T05:01:19Z</time>
      </trkpt>
      <trkpt lat="42.92570500" lon="-9.25408200">
        <ele>17.000000</ele>
        <time>2011-07-27T05:01:30Z</time>
      </trkpt>
      <trkpt lat="42.92554900" lon="-9.25466200">
        <ele>11.000000</ele>
        <time>2011-07-27T05:01:48Z</time>
      </trkpt>
      <trkpt lat="42.92553300" lon="-9.25520900">
        <ele>11.000000</ele>
        <time>2011-07-27T05:02:04Z</time>
      </trkpt>
      <trkpt lat="42.92557100" lon="-9.25568100">
        <ele>9.0000000</ele>
        <time>2011-07-27T05:02:18Z</time>
      </trkpt>
      <trkpt lat="42.92566700" lon="-9.25641100">
        <ele>9.0000000</ele>
        <time>2011-07-27T05:02:40Z</time>
      </trkpt>
      <trkpt lat="42.92550300" lon="-9.25696800">
        <ele>9.0000000</ele>
        <time>2011-07-27T05:02:57Z</time>
      </trkpt>
      <trkpt lat="42.92524300" lon="-9.25737600">
        <ele>8.0000000</ele>
        <time>2011-07-27T05:03:13Z</time>
      </trkpt>
      <trkpt lat="42.92489600" lon="-9.25769800">
        <ele>8.0000000</ele>
        <time>2011-07-27T05:03:30Z</time>
      </trkpt>
      <trkpt lat="42.92459900" lon="-9.25811600">
        <ele>7.0000000</ele>
        <time>2011-07-27T05:03:47Z</time>
      </trkpt>
      <trkpt lat="42.92431600" lon="-9.25871700">
        <ele>5.0000000</ele>
        <time>2011-07-27T05:04:08Z</time>
      </trkpt>
      <trkpt lat="42.92317600" lon="-9.26155000">
        <ele>3.0000000</ele>
        <time>2011-07-27T05:05:43Z</time>
      </trkpt>
      <trkpt lat="42.92241300" lon="-9.26240800">
        <ele>5.0000000</ele>
        <time>2011-07-27T05:06:22Z</time>
      </trkpt>
      <trkpt lat="42.92210000" lon="-9.26280500">
        <ele>5.0000000</ele>
        <time>2011-07-27T05:06:40Z</time>
      </trkpt>
      <trkpt lat="42.92167700" lon="-9.26308400">
        <ele>5.0000000</ele>
        <time>2011-07-27T05:06:58Z</time>
      </trkpt>
      <trkpt lat="42.92066200" lon="-9.26353500">
        <ele>4.0000000</ele>
        <time>2011-07-27T05:07:41Z</time>
      </trkpt>
      <trkpt lat="42.92014300" lon="-9.26402800">
        <ele>6.0000000</ele>
        <time>2011-07-27T05:08:06Z</time>
      </trkpt>
      <trkpt lat="42.91986800" lon="-9.26441400">
        <ele>6.0000000</ele>
        <time>2011-07-27T05:08:22Z</time>
      </trkpt>
      <trkpt lat="42.91931200" lon="-9.26468300">
        <ele>8.0000000</ele>
        <time>2011-07-27T05:08:46Z</time>
      </trkpt>
      <trkpt lat="42.91855600" lon="-9.26494000">
        <ele>5.0000000</ele>
        <time>2011-07-27T05:09:17Z</time>
      </trkpt>
      <trkpt lat="42.91773200" lon="-9.26527300">
        <ele>7.0000000</ele>
        <time>2011-07-27T05:09:51Z</time>
      </trkpt>
      <trkpt lat="42.91722900" lon="-9.26536900">
        <ele>7.0000000</ele>
        <time>2011-07-27T05:10:12Z</time>
      </trkpt>
      <trkpt lat="42.91689700" lon="-9.26572300">
        <ele>5.0000000</ele>
        <time>2011-07-27T05:10:29Z</time>
      </trkpt>
      <trkpt lat="42.91635500" lon="-9.26592700">
        <ele>5.0000000</ele>
        <time>2011-07-27T05:10:51Z</time>
      </trkpt>
      <trkpt lat="42.91567200" lon="-9.26603400">
        <ele>3.0000000</ele>
        <time>2011-07-27T05:11:19Z</time>
      </trkpt>
      <trkpt lat="42.91543600" lon="-9.26626000">
        <ele>10.000000</ele>
        <time>2011-07-27T05:11:30Z</time>
      </trkpt>
      <trkpt lat="42.91523400" lon="-9.26630300">
        <ele>8.0000000</ele>
        <time>2011-07-27T05:11:38Z</time>
      </trkpt>
      <trkpt lat="42.91508500" lon="-9.26592700">
        <ele>3.0000000</ele>
        <time>2011-07-27T05:11:51Z</time>
      </trkpt>
      <trkpt lat="42.91482900" lon="-9.26594900">
        <ele>3.0000000</ele>
        <time>2011-07-27T05:12:01Z</time>
      </trkpt>
      <trkpt lat="42.91437500" lon="-9.26589500">
        <ele>3.0000000</ele>
        <time>2011-07-27T05:12:19Z</time>
      </trkpt>
      <trkpt lat="42.91392100" lon="-9.26582000">
        <ele>3.0000000</ele>
        <time>2011-07-27T05:12:38Z</time>
      </trkpt>
      <trkpt lat="42.91367700" lon="-9.26551900">
        <ele>11.000000</ele>
        <time>2011-07-27T05:12:51Z</time>
      </trkpt>
      <trkpt lat="42.91350200" lon="-9.26555200">
        <ele>11.000000</ele>
        <time>2011-07-27T05:12:58Z</time>
      </trkpt>
      <trkpt lat="42.91347100" lon="-9.26524000">
        <ele>5.0000000</ele>
        <time>2011-07-27T05:13:07Z</time>
      </trkpt>
      <trkpt lat="42.91275000" lon="-9.26445700">
        <ele>5.0000000</ele>
        <time>2011-07-27T05:13:44Z</time>
      </trkpt>
    </trkseg>
    <trkseg>
      <trkpt lat="42.91276900" lon="-9.26447900">
        <ele>5.0000000</ele>
        <time>2011-07-27T05:13:44Z</time>
      </trkpt>
      <trkpt lat="42.91233800" lon="-9.26441400">
        <ele>5.0000000</ele>
        <time>2011-07-27T05:14:01Z</time>
      </trkpt>
      <trkpt lat="42.91184200" lon="-9.26429600">
        <ele>10.000000</ele>
        <time>2011-07-27T05:14:21Z</time>
      </trkpt>
      <trkpt lat="42.91134300" lon="-9.26403900">
        <ele>10.000000</ele>
        <time>2011-07-27T05:14:43Z</time>
      </trkpt>
      <trkpt lat="42.91097300" lon="-9.26395300">
        <ele>17.000000</ele>
        <time>2011-07-27T05:14:58Z</time>
      </trkpt>
      <trkpt lat="42.91047300" lon="-9.26371200">
        <ele>4.0000000</ele>
        <time>2011-07-27T05:15:19Z</time>
      </trkpt>
      <trkpt lat="42.91001100" lon="-9.26330900">
        <ele>18.000000</ele>
        <time>2011-07-27T05:15:41Z</time>
      </trkpt>
      <trkpt lat="42.90975600" lon="-9.26317500">
        <ele>18.000000</ele>
        <time>2011-07-27T05:15:52Z</time>
      </trkpt>
      <trkpt lat="42.90939700" lon="-9.26301400">
        <ele>25.000000</ele>
        <time>2011-07-27T05:16:07Z</time>
      </trkpt>
      <trkpt lat="42.90918400" lon="-9.26288000">
        <ele>14.000000</ele>
        <time>2011-07-27T05:16:16Z</time>
      </trkpt>
      <trkpt lat="42.90895100" lon="-9.26277300">
        <ele>14.000000</ele>
        <time>2011-07-27T05:16:26Z</time>
      </trkpt>
      <trkpt lat="42.90879800" lon="-9.26281600">
        <ele>14.000000</ele>
        <time>2011-07-27T05:16:33Z</time>
      </trkpt>
      <trkpt lat="42.90853100" lon="-9.26302000">
        <ele>22.000000</ele>
        <time>2011-07-27T05:16:45Z</time>
      </trkpt>
      <trkpt lat="42.90822600" lon="-9.26319700">
        <ele>22.000000</ele>
        <time>2011-07-27T05:16:58Z</time>
      </trkpt>
      <trkpt lat="42.90787900" lon="-9.26348100">
        <ele>13.000000</ele>
        <time>2011-07-27T05:17:14Z</time>
      </trkpt>
      <trkpt lat="42.90757800" lon="-9.26366900">
        <ele>13.000000</ele>
        <time>2011-07-27T05:17:28Z</time>
      </trkpt>
      <trkpt lat="42.90736800" lon="-9.26392100">
        <ele>21.000000</ele>
        <time>2011-07-27T05:17:39Z</time>
      </trkpt>
      <trkpt lat="42.90713500" lon="-9.26379700">
        <ele>21.000000</ele>
        <time>2011-07-27T05:17:49Z</time>
      </trkpt>
      <trkpt lat="42.90703200" lon="-9.26376000">
        <ele>18.000000</ele>
        <time>2011-07-27T05:17:53Z</time>
      </trkpt>
      <trkpt lat="42.90688300" lon="-9.26362000">
        <ele>10.000000</ele>
        <time>2011-07-27T05:18:00Z</time>
      </trkpt>
      <trkpt lat="42.90671500" lon="-9.26371700">
        <ele>10.000000</ele>
        <time>2011-07-27T05:18:08Z</time>
      </trkpt>
      <trkpt lat="42.90627700" lon="-9.26376500">
        <ele>18.000000</ele>
        <time>2011-07-27T05:18:25Z</time>
      </trkpt>
      <trkpt lat="42.90613200" lon="-9.26366900">
        <ele>12.000000</ele>
        <time>2011-07-27T05:18:32Z</time>
      </trkpt>
      <trkpt lat="42.90599400" lon="-9.26361500">
        <ele>12.000000</ele>
        <time>2011-07-27T05:18:37Z</time>
      </trkpt>
      <trkpt lat="42.90577300" lon="-9.26348600">
        <ele>12.000000</ele>
        <time>2011-07-27T05:18:47Z</time>
      </trkpt>
      <trkpt lat="42.90563600" lon="-9.26345400">
        <ele>12.000000</ele>
        <time>2011-07-27T05:18:53Z</time>
      </trkpt>
      <trkpt lat="42.90515900" lon="-9.26328800">
        <ele>16.000000</ele>
        <time>2011-07-27T05:19:12Z</time>
      </trkpt>
      <trkpt lat="42.90500600" lon="-9.26330400">
        <ele>16.000000</ele>
        <time>2011-07-27T05:19:18Z</time>
      </trkpt>
    </trkseg>
  </trk>
</gpx>

